Time;durP1;ratioP1;P1;durP2;ratioP2;P2;SDS_P1;SDS_P2;PMS_P1;PMS_P2;Temp;Humidity;BMP_temperature;BMP_pressure;BME280_temperature;BME280_humidity;BME280_pressure;Samples;Min_cycle;Max_cycle;Signal;HPM_P1;HPM_P2
2023/03/02 00:02:09;;;;;;;3.80;2.40;;;;;;;;;;10451554;28;20025;-54
2023/03/02 00:07:13;;;;;;;3.05;2.53;;;;;;;;;;10434373;28;20028;-55
2023/03/02 00:12:14;;;;;;;3.95;2.58;;;;;;;;;;10449900;28;20107;-54
2023/03/02 00:17:15;;;;;;;5.57;2.08;;;;;;;;;;10451027;28;20032;-55
2023/03/02 00:22:15;;;;;;;2.28;1.90;;;;;;;;;;10450725;28;20036;-59
2023/03/02 00:27:16;;;;;;;3.42;2.42;;;;;;;;;;10451062;28;20032;-58
2023/03/02 00:32:20;;;;;;;5.07;2.25;;;;;;;;;;10449379;28;20021;-57
2023/03/02 00:37:20;;;;;;;4.07;2.28;;;;;;;;;;10450353;28;20108;-57
2023/03/02 00:42:21;;;;;;;3.85;1.88;;;;;;;;;;10449978;28;20488;-57
2023/03/02 00:47:22;;;;;;;5.45;2.30;;;;;;;;;;10450037;28;20453;-56
2023/03/02 00:52:22;;;;;;;3.28;2.33;;;;;;;;;;10449566;28;20028;-56
2023/03/02 00:57:24;;;;;;;4.20;2.35;;;;;;;;;;10449647;28;20051;-57
2023/03/02 01:02:25;;;;;;;4.07;2.30;;;;;;;;;;10449335;28;20120;-56
2023/03/02 01:07:27;;;;;;;3.08;2.10;;;;;;;;;;10450153;28;20091;-56
2023/03/02 01:12:27;;;;;;;6.45;2.35;;;;;;;;;;10449904;28;20029;-55
2023/03/02 01:17:28;;;;;;;4.03;2.10;;;;;;;;;;10447969;28;20090;-57
2023/03/02 01:22:28;;;;;;;3.72;2.10;;;;;;;;;;10454729;28;20025;-56
2023/03/02 01:27:29;;;;;;;5.78;2.03;;;;;;;;;;10457575;28;20082;-57
2023/03/02 01:32:30;;;;;;;4.18;2.13;;;;;;;;;;10457605;28;20025;-57
2023/03/02 01:37:31;;;;;;;2.60;1.85;;;;;;;;;;10457079;28;20106;-56
2023/03/02 01:42:45;;;;;;;2.67;2.38;;;;;;;;;;10456764;28;20049;-57
2023/03/02 01:47:46;;;;;;;4.00;1.98;;;;;;;;;;10456739;28;20052;-58
2023/03/02 01:52:47;;;;;;;2.33;1.85;;;;;;;;;;10456344;28;20028;-58
2023/03/02 01:57:50;;;;;;;4.25;2.45;;;;;;;;;;10438792;28;20372;-58
2023/03/02 02:02:53;;;;;;;3.47;2.00;;;;;;;;;;10438458;28;20495;-58
2023/03/02 02:07:54;;;;;;;3.40;2.28;;;;;;;;;;10454832;28;20366;-58
2023/03/02 02:12:54;;;;;;;2.40;1.58;;;;;;;;;;10455873;28;20033;-58
2023/03/02 02:17:55;;;;;;;1.80;1.60;;;;;;;;;;10455519;28;20032;-57
2023/03/02 02:23:18;;;;;;;1.95;1.65;;;;;;;;;;10455061;28;20079;-58
2023/03/02 02:28:26;;;;;;;2.92;1.95;;;;;;;;;;10456042;28;20029;-58
2023/03/02 02:33:27;;;;;;;2.33;1.70;;;;;;;;;;10436039;28;20488;-58
2023/03/02 02:38:28;;;;;;;1.58;1.48;;;;;;;;;;10453378;28;20044;-58
2023/03/02 02:43:30;;;;;;;2.58;1.70;;;;;;;;;;10454450;28;20396;-57
2023/03/02 02:48:32;;;;;;;1.63;1.52;;;;;;;;;;10436676;28;20094;-57
2023/03/02 02:53:58;;;;;;;3.30;1.80;;;;;;;;;;10454033;28;20619;-58
2023/03/02 02:59:13;;;;;;;1.90;1.70;;;;;;;;;;10454206;28;20357;-55
2023/03/02 03:04:20;;;;;;;4.53;1.75;;;;;;;;;;10437454;28;20495;-56
2023/03/02 03:09:22;;;;;;;2.25;1.98;;;;;;;;;;10436525;28;20036;-55
2023/03/02 03:14:35;;;;;;;2.28;1.80;;;;;;;;;;10453658;28;20037;-55
2023/03/02 03:19:41;;;;;;;3.10;1.67;;;;;;;;;;10452031;28;20349;-61
2023/03/02 03:24:43;;;;;;;1.95;1.60;;;;;;;;;;10453453;28;20029;-55
2023/03/02 03:29:49;;;;;;;4.63;1.70;;;;;;;;;;10453706;28;20031;-55
2023/03/02 03:34:49;;;;;;;2.67;1.90;;;;;;;;;;10452887;28;20037;-57
2023/03/02 03:39:50;;;;;;;2.10;1.85;;;;;;;;;;10452225;28;20381;-56
2023/03/02 03:44:51;;;;;;;2.78;2.10;;;;;;;;;;10449642;28;20044;-58
2023/03/02 03:49:51;;;;;;;2.05;1.60;;;;;;;;;;10452118;28;20464;-56
2023/03/02 03:54:52;;;;;;;2.60;1.45;;;;;;;;;;10452206;28;20615;-56
2023/03/02 03:59:53;;;;;;;1.95;1.77;;;;;;;;;;10451783;28;20025;-57
2023/03/02 04:04:54;;;;;;;3.60;1.90;;;;;;;;;;10451096;28;20037;-58
2023/03/02 04:10:02;;;;;;;2.08;1.45;;;;;;;;;;10451620;28;20040;-55
2023/03/02 04:15:06;;;;;;;3.73;2.13;;;;;;;;;;10451401;28;20040;-56
2023/03/02 04:20:08;;;;;;;1.65;1.55;;;;;;;;;;10449898;28;20818;-56
2023/03/02 04:25:11;;;;;;;1.50;1.40;;;;;;;;;;10450489;28;20400;-58
2023/03/02 04:30:13;;;;;;;1.85;1.60;;;;;;;;;;10450360;28;20449;-58
2023/03/02 04:35:14;;;;;;;2.22;1.50;;;;;;;;;;10450174;28;20028;-57
2023/03/02 04:40:16;;;;;;;1.73;1.60;;;;;;;;;;10450708;28;20196;-57
2023/03/02 04:45:17;;;;;;;3.45;2.28;;;;;;;;;;10449772;28;20132;-57
2023/03/02 04:50:18;;;;;;;3.67;1.50;;;;;;;;;;10450800;28;20104;-58
2023/03/02 04:55:23;;;;;;;2.25;1.50;;;;;;;;;;10448872;28;20033;-58
2023/03/02 05:00:24;;;;;;;1.40;1.30;;;;;;;;;;10450156;28;20430;-58
2023/03/02 05:05:24;;;;;;;2.70;2.00;;;;;;;;;;10449435;28;20472;-58
2023/03/02 05:10:26;;;;;;;1.60;1.50;;;;;;;;;;10449497;28;20029;-58
2023/03/02 05:15:34;;;;;;;1.95;1.52;;;;;;;;;;10449739;28;20029;-58
2023/03/02 05:20:35;;;;;;;2.10;1.50;;;;;;;;;;10449827;28;20029;-56
2023/03/02 05:25:37;;;;;;;3.58;1.40;;;;;;;;;;10449685;28;20029;-61
2023/03/02 05:30:38;;;;;;;1.40;1.30;;;;;;;;;;10449802;28;20025;-56
2023/03/02 05:35:40;;;;;;;1.63;1.52;;;;;;;;;;10448933;28;20078;-55
2023/03/02 05:40:44;;;;;;;2.40;1.63;;;;;;;;;;10448870;28;20018;-58
2023/03/02 05:45:45;;;;;;;1.52;1.42;;;;;;;;;;10448591;28;20041;-58
2023/03/02 05:50:46;;;;;;;2.35;1.27;;;;;;;;;;10449077;28;20029;-58
2023/03/02 05:55:47;;;;;;;1.75;1.55;;;;;;;;;;10448397;28;20029;-58
2023/03/02 06:00:48;;;;;;;1.90;1.70;;;;;;;;;;10448517;28;20173;-58
2023/03/02 06:05:49;;;;;;;1.80;1.60;;;;;;;;;;10448928;28;20025;-58
2023/03/02 06:10:55;;;;;;;4.65;1.63;;;;;;;;;;10456500;28;20029;-58
2023/03/02 06:15:56;;;;;;;1.23;1.15;;;;;;;;;;10455191;28;20550;-58
2023/03/02 06:20:56;;;;;;;2.13;1.50;;;;;;;;;;10454977;28;20075;-58
2023/03/02 06:25:58;;;;;;;1.60;1.50;;;;;;;;;;10455691;28;20104;-61
2023/03/02 06:30:59;;;;;;;1.30;1.20;;;;;;;;;;10455091;28;20025;-61
2023/03/02 06:35:59;;;;;;;1.73;1.48;;;;;;;;;;10454389;28;20295;-56
2023/03/02 06:41:00;;;;;;;3.28;1.50;;;;;;;;;;10454860;28;20257;-57
2023/03/02 06:46:01;;;;;;;3.15;1.90;;;;;;;;;;10453742;28;20052;-57
2023/03/02 06:51:02;;;;;;;2.05;1.67;;;;;;;;;;10453380;28;20036;-57
2023/03/02 06:56:03;;;;;;;6.53;1.73;;;;;;;;;;10454427;28;20086;-61
2023/03/02 07:01:03;;;;;;;5.28;1.67;;;;;;;;;;10453665;28;20112;-67
2023/03/02 07:06:04;;;;;;;7.53;2.08;;;;;;;;;;10452613;28;20025;-57
2023/03/02 07:11:12;;;;;;;13.18;2.10;;;;;;;;;;10451759;28;20066;-63
2023/03/02 07:16:14;;;;;;;11.30;2.05;;;;;;;;;;10452952;28;20036;-63
2023/03/02 07:21:14;;;;;;;21.45;2.60;;;;;;;;;;10452197;28;20083;-56
2023/03/02 07:26:15;;;;;;;13.75;2.42;;;;;;;;;;10452880;28;20087;-57
2023/03/02 07:31:16;;;;;;;15.73;2.65;;;;;;;;;;10452637;28;20029;-55
2023/03/02 07:36:16;;;;;;;14.38;3.80;;;;;;;;;;10452988;28;20036;-55
2023/03/02 07:41:17;;;;;;;20.92;2.47;;;;;;;;;;10452429;28;20496;-57
2023/03/02 07:46:17;;;;;;;12.57;2.10;;;;;;;;;;10452107;28;20041;-60
2023/03/02 07:51:18;;;;;;;13.77;2.50;;;;;;;;;;10451767;28;20029;-57
2023/03/02 07:56:19;;;;;;;22.48;3.35;;;;;;;;;;10451693;28;20204;-57
2023/03/02 08:01:20;;;;;;;11.43;2.20;;;;;;;;;;10451863;28;20037;-55
2023/03/02 08:06:20;;;;;;;6.82;1.98;;;;;;;;;;10451327;28;20392;-55
2023/03/02 08:11:21;;;;;;;9.05;1.95;;;;;;;;;;10450955;28;20396;-57
2023/03/02 08:16:24;;;;;;;6.18;2.28;;;;;;;;;;10450646;28;20116;-57
2023/03/02 08:21:25;;;;;;;5.43;2.08;;;;;;;;;;10450362;28;20025;-65
2023/03/02 08:26:26;;;;;;;6.28;2.10;;;;;;;;;;10450922;28;20063;-58
2023/03/02 08:31:27;;;;;;;7.90;2.17;;;;;;;;;;10450135;28;20033;-59
2023/03/02 08:36:28;;;;;;;4.90;1.70;;;;;;;;;;10450549;28;20025;-59
2023/03/02 08:41:29;;;;;;;7.78;2.20;;;;;;;;;;10450001;28;20106;-58
2023/03/02 08:46:30;;;;;;;3.25;1.67;;;;;;;;;;10449683;28;20523;-58
2023/03/02 08:51:31;;;;;;;7.80;1.95;;;;;;;;;;10449699;28;20431;-63
2023/03/02 08:56:36;;;;;;;7.43;2.17;;;;;;;;;;10450296;28;20029;-59
2023/03/02 09:01:37;;;;;;;3.85;2.05;;;;;;;;;;10450693;28;20032;-58
2023/03/02 09:06:41;;;;;;;5.90;2.20;;;;;;;;;;10449445;28;20239;-55
2023/03/02 09:11:43;;;;;;;2.38;1.77;;;;;;;;;;10448775;28;20025;-57
2023/03/02 09:16:45;;;;;;;2.05;1.65;;;;;;;;;;10450248;28;20036;-56
2023/03/02 09:21:45;;;;;;;2.88;1.85;;;;;;;;;;10448942;28;20468;-64
2023/03/02 09:26:46;;;;;;;3.60;2.17;;;;;;;;;;10449232;28;20067;-58
2023/03/02 09:31:46;;;;;;;4.88;2.00;;;;;;;;;;10449291;28;20041;-57
2023/03/02 09:36:47;;;;;;;4.57;2.10;;;;;;;;;;10448717;28;20037;-54
2023/03/02 09:42:13;;;;;;;3.33;2.15;;;;;;;;;;10451247;28;20091;-55
2023/03/02 09:47:26;;;;;;;2.83;2.10;;;;;;;;;;10456662;28;20392;-55
2023/03/02 09:52:37;;;;;;;3.53;1.80;;;;;;;;;;10456673;28;20103;-57
2023/03/02 09:57:38;;;;;;;4.75;1.95;;;;;;;;;;10456649;28;20028;-60
2023/03/02 10:03:05;;;;;;;2.75;1.80;;;;;;;;;;10438532;28;20029;-58
2023/03/02 10:08:22;;;;;;;4.22;2.58;;;;;;;;;;10456058;28;20029;-61
2023/03/02 10:13:39;;;;;;;4.88;2.13;;;;;;;;;;10456548;28;20112;-55
2023/03/02 10:19:02;;;;;;;3.72;2.03;;;;;;;;;;10454743;28;20029;-57
2023/03/02 10:24:10;;;;;;;4.30;1.95;;;;;;;;;;10454207;28;20130;-55
2023/03/02 10:29:39;;;;;;;4.13;2.08;;;;;;;;;;10455645;28;20021;-55
2023/03/02 10:34:40;;;;;;;3.55;2.20;;;;;;;;;;10455037;28;20523;-58
2023/03/02 10:39:41;;;;;;;4.55;2.78;;;;;;;;;;10455015;28;20025;-61
2023/03/02 10:44:50;;;;;;;6.57;2.65;;;;;;;;;;10454338;28;20554;-55
2023/03/02 10:49:52;;;;;;;4.97;2.40;;;;;;;;;;10454152;28;20059;-57
2023/03/02 10:55:13;;;;;;;14.88;2.65;;;;;;;;;;10452874;28;20033;-60
2023/03/02 11:00:22;;;;;;;5.07;3.10;;;;;;;;;;10453821;28;20082;-56
2023/03/02 11:05:33;;;;;;;6.95;3.67;;;;;;;;;;10454491;28;20052;-55
2023/03/02 11:10:49;;;;;;;6.88;3.53;;;;;;;;;;10453712;28;20040;-56
2023/03/02 11:15:52;;;;;;;6.80;3.63;;;;;;;;;;10453540;28;20043;-60
2023/03/02 11:21:04;;;;;;;7.07;3.97;;;;;;;;;;10452800;28;20086;-54
2023/03/02 11:26:31;;;;;;;8.65;4.53;;;;;;;;;;10435828;28;20064;-59
2023/03/02 11:31:32;;;;;;;9.85;4.20;;;;;;;;;;10452824;28;20071;-62
2023/03/02 11:36:58;;;;;;;7.60;3.58;;;;;;;;;;10451564;28;20028;-57
2023/03/02 11:41:59;;;;;;;7.72;4.55;;;;;;;;;;10451931;28;20021;-58
2023/03/02 11:47:00;;;;;;;5.63;3.70;;;;;;;;;;10451614;28;20053;-56
2023/03/02 11:52:01;;;;;;;10.55;4.78;;;;;;;;;;10452485;28;20021;-58
2023/03/02 11:57:03;;;;;;;7.43;4.18;;;;;;;;;;10451124;28;20472;-57
2023/03/02 12:02:03;;;;;;;8.02;4.90;;;;;;;;;;10451052;28;20040;-55
2023/03/02 12:07:24;;;;;;;10.02;4.78;;;;;;;;;;10451659;28;20116;-56
2023/03/02 12:12:25;;;;;;;7.80;4.68;;;;;;;;;;10450736;28;20031;-59
2023/03/02 12:17:25;;;;;;;11.05;5.07;;;;;;;;;;10450568;28;20029;-64
2023/03/02 12:22:30;;;;;;;8.38;4.80;;;;;;;;;;10450502;28;20021;-55
2023/03/02 12:27:40;;;;;;;10.63;4.63;;;;;;;;;;10450203;28;20021;-55
2023/03/02 12:32:58;;;;;;;7.22;4.72;;;;;;;;;;10450470;28;20024;-55
2023/03/02 12:38:25;;;;;;;9.05;4.93;;;;;;;;;;10450003;28;20400;-55
2023/03/02 12:43:41;;;;;;;11.57;5.43;;;;;;;;;;10431497;28;20043;-57
2023/03/02 12:48:49;;;;;;;7.53;5.13;;;;;;;;;;10449014;28;20223;-54
2023/03/02 12:54:25;;;;;;;9.80;5.43;;;;;;;;;;10448218;28;20040;-59
2023/03/02 12:59:28;;;;;;;8.45;4.82;;;;;;;;;;10449662;28;20053;-57
2023/03/02 13:04:28;;;;;;;9.07;5.10;;;;;;;;;;10449337;28;20362;-58
2023/03/02 13:09:29;;;;;;;9.30;5.03;;;;;;;;;;10449152;28;20029;-55
2023/03/02 13:14:29;;;;;;;7.85;5.00;;;;;;;;;;10448377;28;20042;-55
2023/03/02 13:19:31;;;;;;;11.10;5.15;;;;;;;;;;10455556;28;20370;-55
2023/03/02 13:24:56;;;;;;;7.68;4.72;;;;;;;;;;10439930;28;20437;-55
2023/03/02 13:30:21;;;;;;;9.43;4.68;;;;;;;;;;10442107;28;20025;-58
2023/03/02 13:35:27;;;;;;;9.18;4.85;;;;;;;;;;10456996;28;20203;-56
2023/03/02 13:40:45;;;;;;;7.43;4.15;;;;;;;;;;10438989;28;20468;-57
2023/03/02 13:46:02;;;;;;;8.43;4.97;;;;;;;;;;10457139;28;20107;-57
2023/03/02 13:51:24;;;;;;;9.73;4.75;;;;;;;;;;10456405;28;20439;-57
2023/03/02 13:56:32;;;;;;;6.57;4.25;;;;;;;;;;10457106;28;20029;-55
2023/03/02 14:01:33;;;;;;;6.97;4.60;;;;;;;;;;10454962;28;20480;-55
2023/03/02 14:06:33;;;;;;;7.50;4.53;;;;;;;;;;10455808;28;20033;-58
2023/03/02 14:11:38;;;;;;;7.55;4.25;;;;;;;;;;10455529;28;20025;-54
2023/03/02 14:16:40;;;;;;;7.63;4.25;;;;;;;;;;10456183;28;20033;-57
2023/03/02 14:21:42;;;;;;;5.43;4.07;;;;;;;;;;10455710;28;20082;-64
2023/03/02 14:26:46;;;;;;;14.60;4.93;;;;;;;;;;10456022;28;20276;-54
2023/03/02 14:31:47;;;;;;;9.10;4.35;;;;;;;;;;10454318;28;20044;-60
2023/03/02 14:36:52;;;;;;;11.00;5.07;;;;;;;;;;10454732;28;20491;-58
2023/03/02 14:41:53;;;;;;;55.55;5.55;;;;;;;;;;10436457;28;20024;-54
2023/03/02 14:46:55;;;;;;;22.65;4.72;;;;;;;;;;10453777;28;20091;-55
2023/03/02 14:52:37;;;;;;;61.78;6.53;;;;;;;;;;10454935;28;20135;-55
2023/03/02 14:57:37;;;;;;;54.28;6.13;;;;;;;;;;10452918;28;20025;-52
2023/03/02 15:02:38;;;;;;;44.88;6.75;;;;;;;;;;10453545;28;20025;-53
2023/03/02 15:07:39;;;;;;;26.58;4.85;;;;;;;;;;10453867;28;20033;-57
2023/03/02 15:12:40;;;;;;;30.27;5.10;;;;;;;;;;10453419;28;20028;-53
2023/03/02 15:17:41;;;;;;;17.30;4.35;;;;;;;;;;10452917;28;20052;-58
2023/03/02 15:22:42;;;;;;;19.77;4.78;;;;;;;;;;10453446;28;20033;-52
2023/03/02 15:27:43;;;;;;;22.60;5.15;;;;;;;;;;10452846;28;20112;-54
2023/03/02 15:32:43;;;;;;;12.23;4.90;;;;;;;;;;10452200;28;20031;-54
2023/03/02 15:37:44;;;;;;;14.43;4.85;;;;;;;;;;10452734;28;20108;-51
2023/03/02 15:42:44;;;;;;;12.40;4.65;;;;;;;;;;10451760;28;20115;-53
2023/03/02 15:47:45;;;;;;;14.98;4.18;;;;;;;;;;10452944;28;20033;-53
2023/03/02 15:52:46;;;;;;;11.23;4.78;;;;;;;;;;10452748;28;20024;-53
2023/03/02 15:57:47;;;;;;;11.32;4.20;;;;;;;;;;10452521;28;20029;-52
2023/03/02 16:02:48;;;;;;;11.43;4.85;;;;;;;;;;10451895;28;20044;-53
2023/03/02 16:07:49;;;;;;;9.82;4.72;;;;;;;;;;10450938;28;20025;-60
2023/03/02 16:12:49;;;;;;;13.95;4.28;;;;;;;;;;10450334;28;20028;-53
2023/03/02 16:17:50;;;;;;;16.15;4.75;;;;;;;;;;10450754;28;20040;-52
2023/03/02 16:22:51;;;;;;;16.50;5.00;;;;;;;;;;10450904;28;20021;-63
2023/03/02 16:27:52;;;;;;;6.72;3.78;;;;;;;;;;10451248;28;20032;-60
2023/03/02 16:33:00;;;;;;;11.27;5.20;;;;;;;;;;10450432;28;20052;-57
2023/03/02 16:38:02;;;;;;;9.45;4.20;;;;;;;;;;10451167;28;20040;-61
2023/03/02 16:43:04;;;;;;;9.63;4.53;;;;;;;;;;10450911;28;20052;-60
2023/03/02 16:48:06;;;;;;;12.93;3.97;;;;;;;;;;10451226;28;20079;-55
2023/03/02 16:53:06;;;;;;;7.88;4.40;;;;;;;;;;10448933;28;20094;-61
2023/03/02 16:58:07;;;;;;;10.90;4.13;;;;;;;;;;10449956;28;20087;-56
2023/03/02 17:03:07;;;;;;;7.95;3.92;;;;;;;;;;10450192;28;20033;-53
2023/03/02 17:08:12;;;;;;;6.97;4.28;;;;;;;;;;10450272;28;20257;-49
2023/03/02 17:13:15;;;;;;;9.82;3.92;;;;;;;;;;10449369;28;20104;-49
2023/03/02 17:18:16;;;;;;;9.05;4.10;;;;;;;;;;10449979;28;20306;-53
2023/03/02 17:23:16;;;;;;;8.50;3.75;;;;;;;;;;10449837;28;20423;-53
2023/03/02 17:28:17;;;;;;;9.02;4.13;;;;;;;;;;10448828;28;20023;-56
2023/03/02 17:33:18;;;;;;;6.57;4.03;;;;;;;;;;10449206;28;20040;-53
2023/03/02 17:38:18;;;;;;;6.85;3.72;;;;;;;;;;10449500;28;20376;-54
2023/03/02 17:43:19;;;;;;;16.17;3.65;;;;;;;;;;10448512;28;20500;-53
2023/03/02 17:48:20;;;;;;;10.15;4.00;;;;;;;;;;10448862;28;20076;-55
2023/03/02 17:53:20;;;;;;;12.23;4.07;;;;;;;;;;10448873;28;20029;-52
2023/03/02 17:58:22;;;;;;;8.75;3.65;;;;;;;;;;10448593;28;20021;-51
2023/03/02 18:03:22;;;;;;;6.53;3.58;;;;;;;;;;10451974;28;20390;-52
2023/03/02 18:08:23;;;;;;;12.93;3.40;;;;;;;;;;10456271;28;20029;-49
2023/03/02 18:13:24;;;;;;;6.60;3.97;;;;;;;;;;10455669;28;20163;-51
2023/03/02 18:18:25;;;;;;;6.38;4.20;;;;;;;;;;10455670;28;20269;-49
2023/03/02 18:23:25;;;;;;;6.88;3.88;;;;;;;;;;10455656;28;20257;-49
2023/03/02 18:28:26;;;;;;;4.88;3.25;;;;;;;;;;10454896;28;20389;-50
2023/03/02 18:33:27;;;;;;;6.53;3.63;;;;;;;;;;10453937;28;20097;-58
2023/03/02 18:38:29;;;;;;;10.23;4.15;;;;;;;;;;10454022;28;20025;-54
2023/03/02 18:43:33;;;;;;;8.07;4.15;;;;;;;;;;10454164;28;20061;-53
2023/03/02 18:48:34;;;;;;;19.23;4.07;;;;;;;;;;10454116;28;20101;-53
2023/03/02 18:53:36;;;;;;;32.45;6.60;;;;;;;;;;10454543;28;20057;-63
2023/03/02 18:58:37;;;;;;;15.48;5.32;;;;;;;;;;10453993;28;20090;-54
2023/03/02 19:03:40;;;;;;;14.93;5.45;;;;;;;;;;10453951;28;20178;-53
2023/03/02 19:08:41;;;;;;;12.45;4.53;;;;;;;;;;10452953;28;20041;-56
2023/03/02 19:13:41;;;;;;;11.23;4.68;;;;;;;;;;10451611;28;20029;-54
2023/03/02 19:18:42;;;;;;;12.23;4.40;;;;;;;;;;10453386;28;20116;-54
2023/03/02 19:23:42;;;;;;;9.93;4.80;;;;;;;;;;10451103;28;20142;-53
2023/03/02 19:28:43;;;;;;;11.02;4.53;;;;;;;;;;10453058;28;20037;-53
2023/03/02 19:33:44;;;;;;;8.80;4.30;;;;;;;;;;10453126;28;20028;-54
2023/03/02 19:38:44;;;;;;;12.10;4.10;;;;;;;;;;10453139;28;20073;-50
2023/03/02 19:43:45;;;;;;;19.05;5.30;;;;;;;;;;10462954;22;20049;-61
2023/03/02 19:48:46;;;;;;;15.40;5.40;;;;;;;;;;10452537;28;20099;-59
2023/03/02 19:53:47;;;;;;;16.50;5.30;;;;;;;;;;10451962;28;20541;-59
2023/03/02 19:58:49;;;;;;;13.38;5.50;;;;;;;;;;10451601;28;20056;-59
2023/03/02 20:03:51;;;;;;;13.82;5.88;;;;;;;;;;10450891;28;20021;-59
2023/03/02 20:08:52;;;;;;;19.42;5.50;;;;;;;;;;10434176;28;20033;-60
2023/03/02 20:13:53;;;;;;;12.70;4.90;;;;;;;;;;10451080;28;20065;-59
2023/03/02 20:18:54;;;;;;;10.40;4.45;;;;;;;;;;10451574;28;20021;-61
2023/03/02 20:23:54;;;;;;;13.70;4.85;;;;;;;;;;10450944;28;20032;-60
2023/03/02 20:28:58;;;;;;;12.48;4.75;;;;;;;;;;10451146;28;20056;-59
2023/03/02 20:33:58;;;;;;;14.23;5.28;;;;;;;;;;10450811;28;20033;-60
2023/03/02 20:39:37;;;;;;;11.15;5.15;;;;;;;;;;10450864;28;20036;-60
2023/03/02 20:44:38;;;;;;;14.32;5.07;;;;;;;;;;10446802;28;20052;-60
2023/03/02 20:49:39;;;;;;;11.63;4.82;;;;;;;;;;10450394;28;20024;-60
2023/03/02 20:54:42;;;;;;;7.78;4.60;;;;;;;;;;10449741;28;20033;-60
2023/03/02 20:59:44;;;;;;;11.10;5.07;;;;;;;;;;10450407;28;20025;-60
2023/03/02 21:04:46;;;;;;;10.43;4.75;;;;;;;;;;10450153;28;20093;-60
2023/03/02 21:09:46;;;;;;;10.43;4.28;;;;;;;;;;10449514;28;20029;-60
2023/03/02 21:14:47;;;;;;;14.75;4.95;;;;;;;;;;10449412;28;20404;-60
2023/03/02 21:19:47;;;;;;;12.82;5.22;;;;;;;;;;10449858;28;20086;-59
2023/03/02 21:24:48;;;;;;;26.45;5.80;;;;;;;;;;10449136;28;20036;-59
2023/03/02 21:29:49;;;;;;;19.73;6.03;;;;;;;;;;10448909;28;20028;-59
2023/03/02 21:34:49;;;;;;;15.95;5.68;;;;;;;;;;10449195;28;20032;-59
2023/03/02 21:39:50;;;;;;;12.18;5.70;;;;;;;;;;10455262;28;20223;-59
2023/03/02 21:44:50;;;;;;;12.48;5.57;;;;;;;;;;10455750;28;20045;-60
2023/03/02 21:49:51;;;;;;;12.48;5.60;;;;;;;;;;10455691;28;20464;-60
2023/03/02 21:54:53;;;;;;;14.38;5.50;;;;;;;;;;10457028;28;20098;-61
2023/03/02 21:59:53;;;;;;;13.02;5.97;;;;;;;;;;10438885;28;20536;-59
2023/03/02 22:04:54;;;;;;;13.85;6.07;;;;;;;;;;10456068;28;20025;-59
2023/03/02 22:09:55;;;;;;;9.00;5.07;;;;;;;;;;10456191;28;20055;-59
2023/03/02 22:14:58;;;;;;;13.48;6.15;;;;;;;;;;10455873;28;20037;-60
2023/03/02 22:19:58;;;;;;;12.07;5.68;;;;;;;;;;10456290;28;20040;-59
2023/03/02 22:24:59;;;;;;;10.50;5.68;;;;;;;;;;10455732;28;20036;-59
2023/03/02 22:30:01;;;;;;;9.93;5.32;;;;;;;;;;10455457;28;20032;-59
2023/03/02 22:35:20;;;;;;;9.80;5.57;;;;;;;;;;10453928;28;20036;-59
2023/03/02 22:40:33;;;;;;;10.30;5.72;;;;;;;;;;10454913;28;20053;-57
2023/03/02 22:45:34;;;;;;;14.32;5.95;;;;;;;;;;10454407;28;20126;-57
2023/03/02 22:50:36;;;;;;;14.77;5.70;;;;;;;;;;10454940;28;20453;-57
2023/03/02 22:55:42;;;;;;;13.02;5.57;;;;;;;;;;10454568;28;20065;-58
2023/03/02 23:00:42;;;;;;;12.77;5.78;;;;;;;;;;10454586;28;20049;-58
2023/03/02 23:05:47;;;;;;;15.38;5.65;;;;;;;;;;10453592;28;20108;-57
2023/03/02 23:10:51;;;;;;;9.63;5.38;;;;;;;;;;10454496;28;20035;-56
2023/03/02 23:15:52;;;;;;;10.68;6.03;;;;;;;;;;10454067;28;20044;-56
2023/03/02 23:20:53;;;;;;;8.05;5.50;;;;;;;;;;10453415;28;20044;-56
2023/03/02 23:25:54;;;;;;;10.05;4.57;;;;;;;;;;10453659;28;20036;-57
2023/03/02 23:30:54;;;;;;;12.60;6.13;;;;;;;;;;10453608;28;20345;-57
2023/03/02 23:35:55;;;;;;;7.63;5.20;;;;;;;;;;10453309;28;20025;-57
2023/03/02 23:40:55;;;;;;;7.55;4.95;;;;;;;;;;10452972;28;20021;-56
2023/03/02 23:45:56;;;;;;;8.48;5.47;;;;;;;;;;10452499;28;20049;-57
2023/03/02 23:50:57;;;;;;;8.75;4.70;;;;;;;;;;10452791;28;20032;-57
2023/03/02 23:55:58;;;;;;;10.98;5.25;;;;;;;;;;10452416;28;20124;-57
